Time;durP1;ratioP1;P1;durP2;ratioP2;P2;SDS_P1;SDS_P2;PMS_P1;PMS_P2;Temp;Humidity;BMP_temperature;BMP_pressure;BME280_temperature;BME280_humidity;BME280_pressure;Samples;Min_cycle;Max_cycle;Signal;HPM_P1;HPM_P2
2023/06/07 00:00:33;;;;;;;11.30;6.35;;;16.80;89.70;;;;;;4975251;28;20061;-85
2023/06/07 00:03:04;;;;;;;9.65;5.70;;;16.80;89.80;;;;;;4960466;28;20039;-85
2023/06/07 00:05:38;;;;;;;8.77;6.00;;;16.80;89.80;;;;;;4976941;28;20122;-85
2023/06/07 00:08:14;;;;;;;9.50;5.93;;;16.80;89.90;;;;;;4963190;28;20135;-86
2023/06/07 00:10:40;;;;;;;13.00;6.10;;;16.70;90.00;;;;;;4987569;28;20042;-85
2023/06/07 00:13:14;;;;;;;7.78;5.88;;;16.60;90.00;;;;;;5013574;28;20135;-85
2023/06/07 00:15:42;;;;;;;11.98;6.30;;;16.60;90.00;;;;;;5001307;28;20030;-84
2023/06/07 00:18:15;;;;;;;9.30;6.40;;;16.60;90.10;;;;;;5000748;28;20010;-84
2023/06/07 00:20:46;;;;;;;12.23;6.82;;;16.50;90.10;;;;;;4998908;28;20022;-84
2023/06/07 00:23:28;;;;;;;12.57;7.10;;;16.40;90.10;;;;;;5004680;28;20037;-85
2023/06/07 00:25:54;;;;;;;11.70;6.18;;;16.40;90.30;;;;;;4995824;28;20382;-85
2023/06/07 00:28:23;;;;;;;9.25;5.82;;;16.30;90.40;;;;;;4994699;28;20054;-85
2023/06/07 00:30:52;;;;;;;10.85;6.25;;;16.20;90.40;;;;;;4975997;28;20138;-85
2023/06/07 00:33:22;;;;;;;10.18;6.65;;;16.20;90.50;;;;;;4993608;28;20471;-86
2023/06/07 00:35:48;;;;;;;10.02;6.70;;;16.20;90.50;;;;;;4992653;28;20382;-86
2023/06/07 00:38:14;;;;;;;10.88;6.53;;;16.10;90.60;;;;;;4976900;28;20042;-86
2023/06/07 00:40:40;;;;;;;10.80;6.78;;;16.00;90.70;;;;;;4992653;28;20030;-85
2023/06/07 00:43:08;;;;;;;12.57;6.43;;;15.90;90.80;;;;;;4976260;28;20034;-85
2023/06/07 00:45:39;;;;;;;10.07;6.28;;;15.90;90.90;;;;;;4993573;28;20034;-85
2023/06/07 00:48:07;;;;;;;;;;;15.90;90.90;;;;;;4977397;28;20061;-85
2023/06/07 00:50:36;;;;;;;10.55;6.40;;;15.80;90.90;;;;;;4975968;28;20008;-84
2023/06/07 00:53:03;;;;;;;14.05;7.65;;;15.80;91.00;;;;;;4993983;28;20537;-84
2023/06/07 00:55:31;;;;;;;12.88;7.13;;;15.80;91.10;;;;;;4980759;28;20035;-85
2023/06/07 00:57:59;;;;;;;9.60;5.85;;;15.80;91.10;;;;;;4980077;28;20030;-85
2023/06/07 01:00:30;;;;;;;11.68;5.88;;;15.80;91.10;;;;;;4979499;28;20129;-86
2023/06/07 01:02:56;;;;;;;10.50;6.05;;;15.80;91.10;;;;;;4979860;28;20547;-85
2023/06/07 01:05:23;;;;;;;10.75;6.35;;;15.90;91.00;;;;;;4997126;28;20038;-85
2023/06/07 01:07:50;;;;;;;10.98;6.00;;;15.90;91.00;;;;;;4980097;28;20188;-85
2023/06/07 01:10:16;;;;;;;9.52;5.47;;;15.90;90.90;;;;;;4980427;28;20022;-85
2023/06/07 01:12:47;;;;;;;9.43;5.68;;;16.00;90.90;;;;;;4979006;28;20083;-85
2023/06/07 01:15:13;;;;;;;;;;;16.00;90.90;;;;;;4979252;28;20050;-85
2023/06/07 01:17:44;;;;;;;9.23;5.22;;;16.10;90.90;;;;;;4978364;28;20273;-85
2023/06/07 01:20:21;;;;;;;10.18;6.10;;;16.00;90.80;;;;;;4979065;28;20022;-85
2023/06/07 01:22:49;;;;;;;11.25;6.32;;;15.90;90.90;;;;;;4978653;28;20030;-85
2023/06/07 01:25:15;;;;;;;11.27;6.47;;;15.80;91.00;;;;;;4978810;28;20035;-85
2023/06/07 01:27:45;;;;;;;10.18;6.10;;;15.80;91.00;;;;;;4978607;28;20374;-85
2023/06/07 01:30:14;;;;;;;9.75;6.28;;;15.70;91.10;;;;;;4995175;28;20113;-85
2023/06/07 01:32:43;;;;;;;11.15;6.13;;;15.70;91.20;;;;;;4962012;28;20026;-84
2023/06/07 01:35:10;;;;;;;11.82;6.57;;;15.60;91.30;;;;;;4978645;28;20034;-85
2023/06/07 01:37:39;;;;;;;11.82;6.72;;;15.60;91.40;;;;;;4995737;28;20018;-85
2023/06/07 01:40:07;;;;;;;11.95;6.90;;;15.50;91.40;;;;;;4978839;28;20077;-86
2023/06/07 01:42:43;;;;;;;11.68;6.22;;;15.50;91.50;;;;;;4996502;28;20352;-83
2023/06/07 01:45:09;;;;;;;12.15;6.85;;;15.40;91.60;;;;;;4978891;28;20029;-85
2023/06/07 01:47:38;;;;;;;12.07;6.45;;;15.40;91.60;;;;;;4978993;28;20046;-85
2023/06/07 01:50:19;;;;;;;9.65;6.22;;;15.40;91.70;;;;;;4980274;28;20022;-85
2023/06/07 01:52:45;;;;;;;10.80;6.93;;;15.40;91.70;;;;;;4987379;28;20023;-86
2023/06/07 01:55:13;;;;;;;10.55;6.20;;;15.30;91.70;;;;;;5003356;28;20022;-85
2023/06/07 01:58:10;;;;;;;10.27;6.43;;;15.20;91.90;;;;;;4999208;28;20029;-83
2023/06/07 02:01:01;;;;;;;14.02;6.47;;;15.20;92.00;;;;;;5018742;28;20011;-84
2023/06/07 02:03:33;;;;;;;15.73;7.65;;;15.10;92.10;;;;;;5000017;28;20021;-85
2023/06/07 02:06:07;;;;;;;11.93;5.80;;;15.00;92.20;;;;;;4998159;28;20212;-85
2023/06/07 02:08:59;;;;;;;12.55;6.50;;;15.00;92.30;;;;;;4981764;28;20129;-86
2023/06/07 02:11:26;;;;;;;11.40;6.50;;;15.00;92.30;;;;;;4938667;28;1169959;-85
2023/06/07 02:13:58;;;;;;;8.43;5.85;;;15.00;92.30;;;;;;4995342;28;20276;-84
2023/06/07 02:16:37;;;;;;;10.02;5.88;;;15.00;92.30;;;;;;4979212;28;20026;-84
2023/06/07 02:19:07;;;;;;;9.80;5.85;;;15.00;92.20;;;;;;4978638;28;20035;-84
2023/06/07 02:21:37;;;;;;;9.38;5.70;;;15.10;92.20;;;;;;4978616;28;20030;-85
2023/06/07 02:24:11;;;;;;;10.43;5.75;;;15.10;92.10;;;;;;4978852;28;20104;-85
2023/06/07 02:26:37;;;;;;;12.27;6.22;;;15.10;92.10;;;;;;4996091;28;20081;-85
2023/06/07 02:29:09;;;;;;;11.35;5.82;;;15.10;92.10;;;;;;4996027;28;20019;-85
2023/06/07 02:31:35;;;;;;;11.10;5.72;;;15.00;92.20;;;;;;4994560;28;20018;-85
2023/06/07 02:34:00;;;;;;;10.40;5.68;;;15.10;92.20;;;;;;4978518;28;20033;-86
2023/06/07 02:36:32;;;;;;;10.15;5.55;;;15.10;92.20;;;;;;4978512;28;20022;-86
2023/06/07 02:38:58;;;;;;;9.60;6.13;;;15.00;92.20;;;;;;4978465;28;20023;-86
2023/06/07 02:41:25;;;;;;;10.43;5.93;;;15.00;92.20;;;;;;4994319;28;20594;-86
2023/06/07 02:43:51;;;;;;;13.05;7.05;;;15.00;92.30;;;;;;4978127;28;20034;-84
2023/06/07 02:46:17;;;;;;;9.20;5.80;;;15.00;92.30;;;;;;4977967;28;20038;-84
2023/06/07 02:48:45;;;;;;;11.65;6.20;;;15.00;92.30;;;;;;4978462;28;20026;-85
2023/06/07 02:51:13;;;;;;;10.70;6.32;;;14.90;92.30;;;;;;4994374;28;20038;-85
2023/06/07 02:53:39;;;;;;;12.18;6.00;;;14.90;92.40;;;;;;4995664;28;20031;-85
2023/06/07 02:56:05;;;;;;;10.43;5.97;;;14.80;92.50;;;;;;4978263;28;20025;-85
2023/06/07 02:58:31;;;;;;;10.85;6.40;;;14.70;92.60;;;;;;4978105;28;20023;-85
2023/06/07 03:00:57;;;;;;;10.65;5.93;;;14.70;92.70;;;;;;4978331;28;20031;-85
2023/06/07 03:03:32;;;;;;;10.85;6.07;;;14.60;92.70;;;;;;4978091;28;20050;-85
2023/06/07 03:05:59;;;;;;;10.77;5.93;;;14.60;92.80;;;;;;4978116;28;20081;-85
2023/06/07 03:08:25;;;;;;;8.00;5.35;;;14.70;92.70;;;;;;4977696;28;20037;-84
2023/06/07 03:10:51;;;;;;;12.65;5.70;;;14.70;92.60;;;;;;4974191;28;20047;-84
2023/06/07 03:13:17;;;;;;;10.75;5.90;;;14.70;92.60;;;;;;4959404;28;20046;-85
2023/06/07 03:15:45;;;;;;;10.43;6.25;;;14.80;92.60;;;;;;4942244;28;20035;-84
2023/06/07 03:18:16;;;;;;;9.90;5.88;;;14.70;92.60;;;;;;4975107;28;20031;-85
2023/06/07 03:20:43;;;;;;;11.13;5.93;;;14.80;92.90;;;;;;4975094;28;20038;-85
2023/06/07 03:23:18;;;;;;;11.73;5.78;;;14.70;92.60;;;;;;4974258;28;20019;-86
2023/06/07 03:25:43;;;;;;;9.65;6.18;;;14.70;92.70;;;;;;4974958;28;20475;-85
2023/06/07 03:28:09;;;;;;;9.70;5.60;;;14.60;92.70;;;;;;4959772;28;20031;-85
2023/06/07 03:30:35;;;;;;;11.05;6.47;;;14.60;92.80;;;;;;4976379;28;20460;-84
2023/06/07 03:33:03;;;;;;;8.40;5.45;;;14.60;92.90;;;;;;4961057;28;20029;-85
2023/06/07 03:35:28;;;;;;;12.10;6.25;;;14.50;92.80;;;;;;4963659;28;20030;-83
2023/06/07 03:37:54;;;;;;;9.77;5.75;;;14.60;92.90;;;;;;4987551;28;20025;-84
2023/06/07 03:40:20;;;;;;;10.23;6.38;;;14.50;92.90;;;;;;4998538;28;20026;-84
2023/06/07 03:42:46;;;;;;;13.52;6.38;;;14.50;93.00;;;;;;4998497;28;20022;-84
2023/06/07 03:45:19;;;;;;;11.65;6.05;;;14.50;93.00;;;;;;4979447;28;20039;-84
2023/06/07 03:47:48;;;;;;;12.07;5.93;;;14.50;93.00;;;;;;4989867;28;20102;-85
2023/06/07 03:50:13;;;;;;;10.57;6.03;;;14.50;93.00;;;;;;4975653;28;20026;-85
2023/06/07 03:52:39;;;;;;;11.27;6.22;;;14.50;93.00;;;;;;4991298;28;20162;-85
2023/06/07 03:55:05;;;;;;;13.27;6.28;;;14.50;93.00;;;;;;4974139;28;20118;-85
2023/06/07 03:57:31;;;;;;;10.85;5.90;;;14.40;93.00;;;;;;4958264;28;20023;-84
2023/06/07 03:59:57;;;;;;;12.05;5.72;;;14.40;93.10;;;;;;4974387;28;20033;-84
2023/06/07 04:02:23;;;;;;;10.65;5.60;;;14.30;93.20;;;;;;4974284;28;20042;-84
2023/06/07 04:04:49;;;;;;;9.85;5.30;;;14.40;93.20;;;;;;4957527;28;20054;-84
2023/06/07 04:07:16;;;;;;;11.50;5.85;;;14.40;93.20;;;;;;4973936;28;20034;-85
2023/06/07 04:09:42;;;;;;;10.60;6.03;;;14.40;93.20;;;;;;4973645;28;20113;-85
2023/06/07 04:12:08;;;;;;;12.05;5.50;;;14.40;93.20;;;;;;4973179;28;20046;-85
2023/06/07 04:14:33;;;;;;;12.90;5.72;;;14.30;93.20;;;;;;4957111;28;20646;-85
2023/06/07 04:17:00;;;;;;;10.38;5.75;;;14.30;93.30;;;;;;4940795;28;20030;-85
2023/06/07 04:19:26;;;;;;;9.75;5.55;;;14.30;93.40;;;;;;4973891;28;20419;-85
2023/06/07 04:21:52;;;;;;;9.75;5.50;;;14.30;93.70;;;;;;4957253;28;20019;-85
2023/06/07 04:24:18;;;;;;;10.13;5.10;;;14.30;93.50;;;;;;4956753;28;20031;-85
2023/06/07 04:26:44;;;;;;;12.68;6.10;;;14.30;93.40;;;;;;4957698;28;20035;-85
2023/06/07 04:29:10;;;;;;;9.52;5.55;;;14.30;93.50;;;;;;4974625;28;20130;-85
2023/06/07 04:31:39;;;;;;;11.35;5.80;;;14.20;93.50;;;;;;4973126;28;20027;-86
2023/06/07 04:34:05;;;;;;;13.80;6.22;;;14.20;93.60;;;;;;4956808;28;20031;-86
2023/06/07 04:36:31;;;;;;;11.18;5.95;;;14.20;93.60;;;;;;4974333;28;20026;-85
2023/06/07 04:38:58;;;;;;;10.77;5.97;;;14.20;93.70;;;;;;4957018;28;20034;-84
2023/06/07 04:41:32;;;;;;;11.15;5.82;;;14.10;93.70;;;;;;4941672;28;20118;-86
2023/06/07 04:44:00;;;;;;;9.35;6.03;;;14.10;93.80;;;;;;4974526;28;20027;-86
2023/06/07 04:46:26;;;;;;;14.02;6.35;;;14.10;93.90;;;;;;4989092;28;20562;-86
2023/06/07 04:48:52;;;;;;;11.82;5.60;;;14.10;93.90;;;;;;4957131;28;20081;-87
2023/06/07 04:51:20;;;;;;;12.88;6.70;;;14.10;93.90;;;;;;4957298;28;20122;-86
2023/06/07 04:53:46;;;;;;;12.63;6.32;;;14.10;93.90;;;;;;4974838;28;20015;-85
2023/06/07 04:56:12;;;;;;;13.57;6.32;;;14.10;93.90;;;;;;4957305;28;20054;-87
2023/06/07 04:58:41;;;;;;;11.30;5.78;;;14.20;94.00;;;;;;4974909;28;20023;-87
2023/06/07 05:01:11;;;;;;;9.13;5.97;;;14.20;94.00;;;;;;4973640;28;20477;-85
2023/06/07 05:03:43;;;;;;;12.50;6.07;;;14.20;93.90;;;;;;4972913;28;20073;-86
2023/06/07 05:06:08;;;;;;;9.73;5.35;;;14.30;94.00;;;;;;4973312;28;20058;-86
2023/06/07 05:08:34;;;;;;;10.82;5.82;;;14.30;93.90;;;;;;4974458;28;20070;-86
2023/06/07 05:11:00;;;;;;;12.05;6.30;;;14.30;93.90;;;;;;4957127;28;20459;-86
2023/06/07 05:13:25;;;;;;;9.13;5.20;;;14.30;93.90;;;;;;4973330;28;20023;-86
2023/06/07 05:15:53;;;;;;;10.93;5.30;;;14.40;93.90;;;;;;4958579;28;20490;-86
2023/06/07 05:18:19;;;;;;;9.90;5.35;;;14.50;93.90;;;;;;4966408;28;20014;-87
2023/06/07 05:20:49;;;;;;;10.93;5.60;;;14.50;93.90;;;;;;5014221;28;20011;-88
2023/06/07 05:23:17;;;;;;;11.90;5.75;;;14.60;93.80;;;;;;4998002;28;20042;-85
2023/06/07 05:25:44;;;;;;;11.80;5.97;;;14.70;93.80;;;;;;4997623;28;21424;-85
2023/06/07 05:28:10;;;;;;;9.95;5.55;;;14.70;93.70;;;;;;4996482;28;20019;-87
2023/06/07 05:30:36;;;;;;;14.25;5.55;;;14.70;93.70;;;;;;4959000;28;20042;-86
2023/06/07 05:33:02;;;;;;;15.25;6.38;;;14.70;93.70;;;;;;4973903;28;20376;-84
2023/06/07 05:35:27;;;;;;;9.98;5.35;;;14.60;93.70;;;;;;4956968;28;20031;-86
2023/06/07 05:37:56;;;;;;;10.48;5.35;;;14.60;93.80;;;;;;4956699;28;20027;-86
2023/06/07 05:40:22;;;;;;;15.93;5.93;;;14.70;93.80;;;;;;4975978;28;20027;-84
2023/06/07 05:42:50;;;;;;;9.02;4.50;;;14.70;93.70;;;;;;4975756;28;20077;-85
2023/06/07 05:45:16;;;;;;;10.13;5.15;;;14.80;93.70;;;;;;4960246;28;20126;-84
2023/06/07 05:47:47;;;;;;;11.23;5.22;;;14.90;93.70;;;;;;4959949;28;20085;-84
2023/06/07 05:50:15;;;;;;;10.60;5.25;;;15.00;93.60;;;;;;4959546;28;20384;-85
2023/06/07 05:52:58;;;;;;;15.02;6.20;;;15.00;93.40;;;;;;4959957;28;20030;-86
2023/06/07 05:55:27;;;;;;;12.13;5.82;;;15.10;93.40;;;;;;4975948;28;20097;-86
2023/06/07 05:57:57;;;;;;;11.35;5.68;;;15.00;93.40;;;;;;4976461;28;20097;-85
2023/06/07 06:00:25;;;;;;;11.10;5.40;;;15.00;93.40;;;;;;4976076;28;20027;-86
2023/06/07 06:02:52;;;;;;;12.88;5.82;;;15.10;93.40;;;;;;4975485;28;20031;-86
2023/06/07 06:05:20;;;;;;;12.07;5.60;;;15.10;93.40;;;;;;4975051;28;20037;-87
2023/06/07 06:07:46;;;;;;;10.88;5.47;;;15.20;93.60;;;;;;4976151;28;20035;-82
2023/06/07 06:10:12;;;;;;;10.75;5.65;;;15.20;93.20;;;;;;4975179;28;20554;-82
2023/06/07 06:12:38;;;;;;;7.40;4.55;;;15.20;93.20;;;;;;4975645;28;20105;-86
2023/06/07 06:15:08;;;;;;;9.45;5.05;;;15.40;93.20;;;;;;4976213;28;20384;-85
2023/06/07 06:17:42;;;;;;;11.40;5.72;;;15.40;93.10;;;;;;4975403;28;20113;-84
2023/06/07 06:20:12;;;;;;;9.45;5.28;;;15.50;92.90;;;;;;4975385;28;20114;-86
2023/06/07 06:22:38;;;;;;;11.73;5.37;;;15.40;92.80;;;;;;4975587;28;20058;-85
2023/06/07 06:25:07;;;;;;;12.23;6.03;;;15.50;92.80;;;;;;4959521;28;20069;-86
2023/06/07 06:27:33;;;;;;;10.80;5.15;;;15.60;92.80;;;;;;4958996;28;20142;-86
2023/06/07 06:30:05;;;;;;;12.77;5.90;;;15.60;92.80;;;;;;4975212;28;20069;-86
2023/06/07 06:32:34;;;;;;;11.30;6.13;;;15.70;92.70;;;;;;4958659;28;20501;-84
2023/06/07 06:35:03;;;;;;;10.40;6.65;;;15.80;92.60;;;;;;4975437;28;20031;-86
2023/06/07 06:37:35;;;;;;;11.15;6.07;;;15.80;92.50;;;;;;4959491;28;20042;-86
2023/06/07 06:40:01;;;;;;;9.88;5.65;;;15.80;92.50;;;;;;4975766;28;20026;-86
2023/06/07 06:42:29;;;;;;;13.02;6.40;;;15.80;92.40;;;;;;4960253;28;20062;-86
2023/06/07 06:44:59;;;;;;;9.93;5.38;;;15.70;92.40;;;;;;4976848;28;20038;-86
2023/06/07 06:47:41;;;;;;;12.23;6.63;;;15.80;92.50;;;;;;4961640;28;20115;-87
2023/06/07 06:50:19;;;;;;;15.48;6.45;;;15.70;92.50;;;;;;4948509;28;20065;-86
2023/06/07 06:53:04;;;;;;;10.18;6.10;;;15.70;92.60;;;;;;4967227;28;20058;-86
2023/06/07 06:55:34;;;;;;;12.45;6.72;;;15.70;92.60;;;;;;4992873;28;20026;-87
2023/06/07 06:58:00;;;;;;;9.73;6.10;;;15.60;92.60;;;;;;4999291;28;20047;-85
2023/06/07 07:00:26;;;;;;;13.40;6.18;;;15.60;92.60;;;;;;4998846;28;20027;-86
2023/06/07 07:02:52;;;;;;;11.65;6.50;;;15.60;92.70;;;;;;4983723;28;20010;-87
2023/06/07 07:05:18;;;;;;;12.38;6.70;;;15.70;92.70;;;;;;4999050;28;20011;-86
2023/06/07 07:07:44;;;;;;;10.95;6.28;;;15.70;92.60;;;;;;4982302;28;20042;-86
2023/06/07 07:10:23;;;;;;;14.18;6.70;;;15.70;92.60;;;;;;4991800;28;20105;-86
2023/06/07 07:12:49;;;;;;;9.70;6.32;;;15.80;92.60;;;;;;4974737;28;20051;-86
2023/06/07 07:15:15;;;;;;;16.45;6.57;;;15.90;92.60;;;;;;4958279;28;20038;-87
2023/06/07 07:17:46;;;;;;;11.68;6.10;;;15.90;92.60;;;;;;4974965;28;20368;-85
2023/06/07 07:20:15;;;;;;;16.65;7.25;;;15.90;92.50;;;;;;4974414;28;20050;-86
2023/06/07 07:22:45;;;;;;;12.00;6.65;;;16.00;92.40;;;;;;4958751;28;20034;-87
2023/06/07 07:25:14;;;;;;;14.73;6.20;;;16.00;92.50;;;;;;4974565;28;20027;-86
2023/06/07 07:27:40;;;;;;;12.68;6.05;;;16.00;92.50;;;;;;4958469;28;20031;-87
2023/06/07 07:30:06;;;;;;;14.52;7.53;;;16.00;92.40;;;;;;4974593;28;20117;-86
2023/06/07 07:32:35;;;;;;;20.08;8.50;;;16.10;92.40;;;;;;4974080;28;20431;-88
2023/06/07 07:35:04;;;;;;;17.30;6.85;;;16.00;92.30;;;;;;4958475;28;20035;-87
2023/06/07 07:37:30;;;;;;;15.45;6.95;;;16.00;92.30;;;;;;4958037;28;20039;-86
2023/06/07 07:39:58;;;;;;;15.85;6.57;;;16.00;92.40;;;;;;4958299;28;20033;-87
2023/06/07 07:42:24;;;;;;;15.10;6.90;;;16.00;92.40;;;;;;4973918;28;20085;-86
2023/06/07 07:44:53;;;;;;;13.70;6.90;;;16.00;92.30;;;;;;4957735;28;20427;-85
2023/06/07 07:47:18;;;;;;;14.43;7.20;;;16.20;92.40;;;;;;4974044;28;20078;-87
2023/06/07 07:49:44;;;;;;;15.48;7.60;;;16.20;92.30;;;;;;4974166;28;20050;-86
2023/06/07 07:52:13;;;;;;;14.27;7.78;;;16.30;92.10;;;;;;4974153;28;20482;-87
2023/06/07 07:54:43;;;;;;;15.85;7.95;;;16.30;92.10;;;;;;4973776;28;20050;-86
2023/06/07 07:57:12;;;;;;;18.05;7.60;;;16.40;92.20;;;;;;4958014;28;20031;-86
2023/06/07 07:59:38;;;;;;;11.23;6.20;;;16.50;92.20;;;;;;4973587;28;20034;-86
2023/06/07 08:02:07;;;;;;;11.10;5.70;;;16.50;92.10;;;;;;4973552;28;20027;-86
2023/06/07 08:04:33;;;;;;;17.13;6.82;;;16.70;92.00;;;;;;4973987;28;20169;-87
2023/06/07 08:07:01;;;;;;;16.80;7.05;;;16.70;91.70;;;;;;4973691;28;20114;-87
2023/06/07 08:09:27;;;;;;;11.48;5.65;;;16.80;91.50;;;;;;4973436;28;20375;-86
2023/06/07 08:11:53;;;;;;;10.23;5.70;;;16.80;91.50;;;;;;4973274;28;20050;-86
2023/06/07 08:14:22;;;;;;;11.32;5.82;;;16.90;91.50;;;;;;4957660;28;20027;-85
2023/06/07 08:16:57;;;;;;;11.93;5.30;;;17.00;91.40;;;;;;4973262;28;20034;-86
2023/06/07 08:19:34;;;;;;;8.60;5.28;;;17.10;91.30;;;;;;4973779;28;20526;-87
2023/06/07 08:22:02;;;;;;;10.30;5.28;;;17.30;91.20;;;;;;4958793;28;20027;-86
2023/06/07 08:24:31;;;;;;;9.13;5.22;;;17.40;91.10;;;;;;4958379;28;20070;-86
2023/06/07 08:26:56;;;;;;;12.88;5.55;;;17.50;91.10;;;;;;4974114;28;20070;-86
2023/06/07 08:29:22;;;;;;;8.52;4.95;;;17.70;91.00;;;;;;4973884;28;20035;-85
2023/06/07 08:31:54;;;;;;;8.80;5.57;;;17.80;91.00;;;;;;4958221;28;20027;-86
2023/06/07 08:34:29;;;;;;;11.02;5.63;;;17.90;90.80;;;;;;4974561;28;20057;-87
2023/06/07 08:36:58;;;;;;;11.02;5.90;;;17.90;90.60;;;;;;4975019;28;20029;-86
2023/06/07 08:39:26;;;;;;;12.05;5.90;;;17.90;90.40;;;;;;4959675;28;20034;-85
2023/06/07 08:41:58;;;;;;;12.70;6.10;;;18.00;90.30;;;;;;4977100;28;20526;-86
2023/06/07 08:44:26;;;;;;;10.50;5.93;;;18.00;90.30;;;;;;4980776;28;20081;-87
2023/06/07 08:46:54;;;;;;;11.07;5.65;;;18.00;90.30;;;;;;4995798;28;20125;-86
2023/06/07 08:49:26;;;;;;;9.88;5.80;;;18.00;90.20;;;;;;4997470;28;20068;-86
2023/06/07 08:51:58;;;;;;;8.38;4.65;;;18.10;90.40;;;;;;4996450;28;20029;-87
2023/06/07 08:54:28;;;;;;;10.93;5.78;;;18.10;90.40;;;;;;4979672;28;20027;-86
2023/06/07 08:56:57;;;;;;;8.07;4.68;;;18.30;90.40;;;;;;4986239;28;20095;-88
2023/06/07 08:59:27;;;;;;;15.05;7.05;;;18.40;90.30;;;;;;4959004;28;20026;-87
2023/06/07 09:01:57;;;;;;;13.43;6.90;;;18.50;90.00;;;;;;4974192;28;20117;-86
2023/06/07 09:04:29;;;;;;;11.57;7.15;;;18.50;89.70;;;;;;4957775;28;20124;-87
2023/06/07 09:07:06;;;;;;;11.15;5.50;;;18.50;89.60;;;;;;4973941;28;20062;-88
2023/06/07 09:09:40;;;;;;;11.82;5.97;;;18.50;89.80;;;;;;4974973;28;20018;-87
2023/06/07 09:12:10;;;;;;;11.23;6.75;;;18.50;89.60;;;;;;4973335;28;20134;-87
2023/06/07 09:14:39;;;;;;;10.30;5.73;;;18.50;89.30;;;;;;4975405;28;20019;-87
2023/06/07 09:17:08;;;;;;;7.93;6.20;;;18.50;89.30;;;;;;4960903;28;20310;-88
2023/06/07 09:19:43;;;;;;;12.32;6.43;;;18.60;89.30;;;;;;4976593;28;20109;-87
2023/06/07 09:22:14;;;;;;;12.25;6.18;;;18.70;89.50;;;;;;4976800;28;20034;-89
2023/06/07 09:24:39;;;;;;;;;;;18.70;89.60;;;;;;4977403;28;20103;-86
2023/06/07 09:27:06;;;;;;;13.13;6.38;;;18.80;89.30;;;;;;4977124;28;19944;-87
2023/06/07 09:29:41;;;;;;;9.73;6.68;;;18.80;89.30;;;;;;4975849;28;20131;-89
2023/06/07 09:32:18;;;;;;;10.98;5.75;;;18.90;89.30;;;;;;4975902;28;20027;-87
2023/06/07 09:34:46;;;;;;;15.93;5.78;;;18.90;89.30;;;;;;4976084;28;20053;-88
2023/06/07 09:37:16;;;;;;;10.20;6.05;;;19.00;89.40;;;;;;4976847;28;20027;-86
2023/06/07 09:39:45;;;;;;;10.63;5.45;;;19.10;89.40;;;;;;4960917;28;20030;-87
2023/06/07 09:42:18;;;;;;;7.25;5.40;;;19.10;89.30;;;;;;4977946;28;20053;-87
2023/06/07 09:44:44;;;;;;;10.02;5.68;;;19.20;89.50;;;;;;4976131;28;20118;-88
2023/06/07 09:47:21;;;;;;;9.90;5.93;;;19.20;89.50;;;;;;4978027;28;20034;-87
2023/06/07 09:49:47;;;;;;;10.82;5.75;;;19.30;89.60;;;;;;4976214;28;20022;-88
2023/06/07 09:52:15;;;;;;;9.90;5.10;;;19.30;89.40;;;;;;4977844;28;20034;-86
2023/06/07 09:54:45;;;;;;;11.75;5.80;;;19.40;89.30;;;;;;4960140;28;20134;-88
2023/06/07 09:57:27;;;;;;;10.32;5.97;;;19.40;89.40;;;;;;4976525;28;20423;-88
2023/06/07 10:00:07;;;;;;;8.95;5.72;;;19.40;89.60;;;;;;4976087;28;20383;-87
2023/06/07 10:02:32;;;;;;;8.73;5.90;;;19.50;90.00;;;;;;4977672;28;20033;-87
2023/06/07 10:05:00;;;;;;;11.02;5.88;;;19.50;90.20;;;;;;4977471;28;20106;-87
2023/06/07 10:07:47;;;;;;;12.23;5.95;;;19.50;90.40;;;;;;4976131;28;20490;-85
2023/06/07 10:10:15;;;;;;;13.40;7.00;;;19.60;90.70;;;;;;4992003;28;20392;-86
2023/06/07 10:12:43;;;;;;;12.00;7.50;;;19.60;90.80;;;;;;4975601;28;20055;-86
2023/06/07 10:15:25;;;;;;;13.43;7.82;;;19.50;90.80;;;;;;4977505;28;20030;-87
2023/06/07 10:17:55;;;;;;;14.20;7.40;;;19.50;90.80;;;;;;4976199;28;20460;-88
2023/06/07 10:20:35;;;;;;;9.45;6.90;;;19.40;90.80;;;;;;4992142;28;20033;-86
2023/06/07 10:23:06;;;;;;;9.63;6.67;;;19.40;91.00;;;;;;4976180;28;20015;-86
2023/06/07 10:25:47;;;;;;;11.13;7.25;;;19.40;91.10;;;;;;4992446;28;20318;-85
2023/06/07 10:28:32;;;;;;;13.05;7.57;;;19.50;91.10;;;;;;4977169;28;20063;-86
2023/06/07 10:31:05;;;;;;;11.48;7.03;;;19.50;91.20;;;;;;4994496;28;20078;-86
2023/06/07 10:33:37;;;;;;;10.75;7.20;;;19.50;91.30;;;;;;4980421;28;20022;-87
2023/06/07 10:36:06;;;;;;;8.85;6.43;;;19.60;90.90;;;;;;4991253;28;20027;-86
2023/06/07 10:38:32;;;;;;;9.95;6.78;;;19.60;90.50;;;;;;4999715;28;20050;-87
2023/06/07 10:41:00;;;;;;;10.73;6.10;;;19.60;90.30;;;;;;4999053;28;20057;-86
2023/06/07 10:43:28;;;;;;;11.18;6.88;;;19.60;90.30;;;;;;4998318;28;20026;-87
2023/06/07 10:46:23;;;;;;;12.70;6.43;;;19.60;90.00;;;;;;4995923;28;20034;-86
2023/06/07 10:48:49;;;;;;;8.63;5.65;;;19.60;90.00;;;;;;4979266;28;20027;-87
2023/06/07 10:51:15;;;;;;;9.38;6.68;;;19.70;89.90;;;;;;4977089;28;20027;-87
2023/06/07 10:53:57;;;;;;;9.38;5.97;;;19.80;89.40;;;;;;4992332;28;20117;-88
2023/06/07 10:56:41;;;;;;;7.35;5.72;;;19.80;89.30;;;;;;4975748;28;20023;-86
2023/06/07 10:59:16;;;;;;;10.25;6.28;;;19.90;89.30;;;;;;4975910;28;20467;-87
2023/06/07 11:01:54;;;;;;;7.60;5.97;;;20.00;89.00;;;;;;4976227;28;20066;-87
2023/06/07 11:04:37;;;;;;;9.05;5.43;;;20.00;88.40;;;;;;4975721;28;20038;-87
2023/06/07 11:07:18;;;;;;;11.32;5.88;;;20.10;88.00;;;;;;4991646;28;20042;-87
2023/06/07 11:10:15;;;;;;;7.40;5.40;;;20.20;87.80;;;;;;4975306;28;20022;-87
2023/06/07 11:12:53;;;;;;;9.65;5.30;;;20.30;87.40;;;;;;4970559;28;20458;-88
2023/06/07 11:15:26;;;;;;;9.27;5.32;;;20.40;87.30;;;;;;4975508;28;20027;-88
2023/06/07 11:18:00;;;;;;;6.05;4.32;;;20.40;86.50;;;;;;4974877;28;20026;-88
2023/06/07 11:20:37;;;;;;;7.32;4.40;;;20.50;86.80;;;;;;4975168;28;20022;-87
2023/06/07 11:23:24;;;;;;;5.05;4.20;;;20.60;86.90;;;;;;4990824;28;20034;-89
2023/06/07 11:26:06;;;;;;;7.65;4.45;;;20.70;87.10;;;;;;4976230;28;20069;-87
2023/06/07 11:28:34;;;;;;;8.35;4.65;;;20.80;87.10;;;;;;4991530;28;20117;-88
2023/06/07 11:31:01;;;;;;;7.70;4.50;;;21.00;86.80;;;;;;4974720;28;20027;-88
2023/06/07 11:33:27;;;;;;;8.40;4.68;;;21.00;86.50;;;;;;4974622;28;20062;-87
2023/06/07 11:35:56;;;;;;;11.07;4.97;;;21.10;86.30;;;;;;4974455;28;20038;-87
2023/06/07 11:38:26;;;;;;;6.90;4.22;;;21.20;85.90;;;;;;4974130;28;20029;-87
2023/06/07 11:40:51;;;;;;;7.67;4.83;;;21.30;85.90;;;;;;4974651;28;20023;-88
2023/06/07 11:43:24;;;;;;;7.15;4.28;;;21.30;86.00;;;;;;4974335;28;20421;-87
2023/06/07 11:45:50;;;;;;;5.97;4.25;;;21.40;85.90;;;;;;4974531;28;20031;-87
2023/06/07 11:48:16;;;;;;;8.30;5.47;;;21.50;86.00;;;;;;4974641;28;20031;-88
2023/06/07 11:50:47;;;;;;;11.95;5.95;;;21.50;85.80;;;;;;4974564;28;20019;-86
2023/06/07 11:53:16;;;;;;;9.50;5.13;;;21.60;85.40;;;;;;4976142;28;20157;-87
2023/06/07 11:55:46;;;;;;;9.07;5.18;;;21.60;85.20;;;;;;4974583;28;20039;-87
2023/06/07 11:58:16;;;;;;;10.43;5.10;;;21.70;85.50;;;;;;4974472;28;20057;-86
2023/06/07 12:00:47;;;;;;;9.75;5.25;;;21.70;85.60;;;;;;4974169;28;20027;-87
2023/06/07 12:03:13;;;;;;;7.93;4.97;;;21.70;86.20;;;;;;4974294;28;20464;-87
2023/06/07 12:05:39;;;;;;;6.85;4.95;;;21.80;85.50;;;;;;4990605;28;20031;-86
2023/06/07 12:08:07;;;;;;;9.50;4.65;;;21.80;85.50;;;;;;4974983;28;20086;-88
2023/06/07 12:10:36;;;;;;;6.10;4.82;;;21.90;85.50;;;;;;4973825;28;20398;-88
2023/06/07 12:13:18;;;;;;;8.10;5.00;;;22.00;85.40;;;;;;4973829;28;20061;-89
2023/06/07 12:15:50;;;;;;;6.35;5.00;;;22.00;85.30;;;;;;4974305;28;20360;-87
2023/06/07 12:18:20;;;;;;;9.15;5.35;;;22.10;85.20;;;;;;4974411;28;20374;-87
2023/06/07 12:20:47;;;;;;;8.68;5.57;;;22.00;84.80;;;;;;4975621;28;20037;-87
2023/06/07 12:23:20;;;;;;;9.73;5.40;;;22.10;85.00;;;;;;4973982;28;20023;-87
2023/06/07 12:25:45;;;;;;;10.15;5.53;;;22.20;85.10;;;;;;4975410;28;20031;-87
2023/06/07 12:28:14;;;;;;;8.25;4.90;;;22.20;85.10;;;;;;4961616;28;20038;-87
2023/06/07 12:30:42;;;;;;;7.30;4.68;;;22.30;84.90;;;;;;4986205;28;20010;-87
2023/06/07 12:33:15;;;;;;;8.52;5.05;;;22.30;85.00;;;;;;4998442;28;20078;-88
2023/06/07 12:36:01;;;;;;;8.18;5.50;;;22.40;85.00;;;;;;4982526;28;20031;-88
2023/06/07 12:38:27;;;;;;;7.15;4.70;;;22.50;84.80;;;;;;4998133;28;20031;-88
2023/06/07 12:40:53;;;;;;;6.18;4.45;;;22.50;84.80;;;;;;5012515;28;20073;-88
2023/06/07 12:43:18;;;;;;;7.18;4.72;;;22.60;85.00;;;;;;4986540;28;20023;-88
2023/06/07 12:45:47;;;;;;;8.95;5.10;;;22.60;84.40;;;;;;4975259;28;20386;-87
2023/06/07 12:48:12;;;;;;;8.00;5.20;;;22.70;83.90;;;;;;4975613;28;20034;-87
2023/06/07 12:50:38;;;;;;;8.60;4.88;;;22.80;83.50;;;;;;4977627;28;20023;-87
2023/06/07 12:53:07;;;;;;;7.45;4.40;;;22.80;83.30;;;;;;4977677;28;20038;-88